sensor_id;sensor_type;location;lat;lon;timestamp;P1;durP1;ratioP1;P2;durP2;ratioP2
82952;SDS011;74888;40.196;44.560;2024-01-15T00:01:03;28.83;;;12.35;;
82952;SDS011;74888;40.196;44.560;2024-01-15T00:03:29;30.23;;;12.60;;
82952;SDS011;74888;40.196;44.560;2024-01-15T00:05:55;32.80;;;14.38;;
82952;SDS011;74888;40.196;44.560;2024-01-15T00:10:46;51.45;;;20.52;;
82952;SDS011;74888;40.196;44.560;2024-01-15T00:15:39;22.10;;;10.48;;
82952;SDS011;74888;40.196;44.560;2024-01-15T00:20:30;22.23;;;10.20;;
82952;SDS011;74888;40.196;44.560;2024-01-15T00:22:57;22.27;;;10.73;;
82952;SDS011;74888;40.196;44.560;2024-01-15T00:25:23;25.70;;;11.88;;
82952;SDS011;74888;40.196;44.560;2024-01-15T00:27:49;24.65;;;12.20;;
82952;SDS011;74888;40.196;44.560;2024-01-15T00:30:14;25.60;;;11.43;;
82952;SDS011;74888;40.196;44.560;2024-01-15T00:35:05;28.63;;;11.82;;
82952;SDS011;74888;40.196;44.560;2024-01-15T00:37:33;23.33;;;12.75;;
82952;SDS011;74888;40.196;44.560;2024-01-15T00:40:00;25.27;;;11.55;;
82952;SDS011;74888;40.196;44.560;2024-01-15T00:42:26;27.45;;;11.80;;
82952;SDS011;74888;40.196;44.560;2024-01-15T00:44:51;25.75;;;11.80;;
82952;SDS011;74888;40.196;44.560;2024-01-15T00:47:21;24.88;;;11.88;;
82952;SDS011;74888;40.196;44.560;2024-01-15T00:49:47;24.58;;;11.95;;
82952;SDS011;74888;40.196;44.560;2024-01-15T00:52:12;27.52;;;12.88;;
82952;SDS011;74888;40.196;44.560;2024-01-15T00:54:38;28.92;;;13.57;;
82952;SDS011;74888;40.196;44.560;2024-01-15T00:57:05;31.75;;;15.25;;
82952;SDS011;74888;40.196;44.560;2024-01-15T00:59:30;34.28;;;16.23;;
82952;SDS011;74888;40.196;44.560;2024-01-15T01:04:23;36.67;;;15.65;;
82952;SDS011;74888;40.196;44.560;2024-01-15T01:06:49;35.58;;;15.90;;
82952;SDS011;74888;40.196;44.560;2024-01-15T01:09:21;37.42;;;16.00;;
82952;SDS011;74888;40.196;44.560;2024-01-15T01:11:49;37.65;;;16.17;;
82952;SDS011;74888;40.196;44.560;2024-01-15T01:14:14;38.35;;;15.77;;
82952;SDS011;74888;40.196;44.560;2024-01-15T01:16:40;36.40;;;17.48;;
82952;SDS011;74888;40.196;44.560;2024-01-15T01:19:06;36.63;;;16.17;;
82952;SDS011;74888;40.196;44.560;2024-01-15T01:21:33;37.40;;;15.05;;
82952;SDS011;74888;40.196;44.560;2024-01-15T01:24:00;37.60;;;15.00;;
82952;SDS011;74888;40.196;44.560;2024-01-15T01:26:25;37.20;;;14.98;;
82952;SDS011;74888;40.196;44.560;2024-01-15T01:31:17;33.42;;;13.90;;
82952;SDS011;74888;40.196;44.560;2024-01-15T01:33:43;29.63;;;14.30;;
82952;SDS011;74888;40.196;44.560;2024-01-15T01:36:09;30.98;;;13.38;;
82952;SDS011;74888;40.196;44.560;2024-01-15T01:38:35;29.10;;;14.13;;
82952;SDS011;74888;40.196;44.560;2024-01-15T01:41:03;30.15;;;14.18;;
82952;SDS011;74888;40.196;44.560;2024-01-15T01:43:29;28.13;;;12.85;;
82952;SDS011;74888;40.196;44.560;2024-01-15T01:45:55;27.15;;;12.75;;
82952;SDS011;74888;40.196;44.560;2024-01-15T01:48:25;36.70;;;15.40;;
82952;SDS011;74888;40.196;44.560;2024-01-15T01:50:53;31.83;;;13.05;;
82952;SDS011;74888;40.196;44.560;2024-01-15T01:53:23;36.08;;;14.73;;
82952;SDS011;74888;40.196;44.560;2024-01-15T01:55:51;31.55;;;13.88;;
82952;SDS011;74888;40.196;44.560;2024-01-15T01:58:18;32.10;;;14.38;;
82952;SDS011;74888;40.196;44.560;2024-01-15T02:00:47;33.10;;;13.80;;
82952;SDS011;74888;40.196;44.560;2024-01-15T02:03:14;32.33;;;14.02;;
82952;SDS011;74888;40.196;44.560;2024-01-15T02:05:40;31.17;;;14.10;;
82952;SDS011;74888;40.196;44.560;2024-01-15T02:08:05;23.92;;;11.80;;
82952;SDS011;74888;40.196;44.560;2024-01-15T02:10:31;23.85;;;11.35;;
82952;SDS011;74888;40.196;44.560;2024-01-15T02:15:29;26.27;;;12.15;;
82952;SDS011;74888;40.196;44.560;2024-01-15T02:18:01;33.83;;;14.13;;
82952;SDS011;74888;40.196;44.560;2024-01-15T02:20:27;27.60;;;13.40;;
82952;SDS011;74888;40.196;44.560;2024-01-15T02:22:54;27.30;;;11.93;;
82952;SDS011;74888;40.196;44.560;2024-01-15T02:27:51;33.22;;;12.93;;
82952;SDS011;74888;40.196;44.560;2024-01-15T02:30:18;30.92;;;13.60;;
82952;SDS011;74888;40.196;44.560;2024-01-15T02:32:44;34.00;;;14.35;;
82952;SDS011;74888;40.196;44.560;2024-01-15T02:35:12;31.58;;;13.18;;
82952;SDS011;74888;40.196;44.560;2024-01-15T02:37:40;30.45;;;13.65;;
82952;SDS011;74888;40.196;44.560;2024-01-15T02:40:06;29.45;;;13.80;;
82952;SDS011;74888;40.196;44.560;2024-01-15T02:42:32;28.30;;;13.45;;
82952;SDS011;74888;40.196;44.560;2024-01-15T02:44:58;27.23;;;12.48;;
82952;SDS011;74888;40.196;44.560;2024-01-15T02:47:23;28.42;;;13.43;;
82952;SDS011;74888;40.196;44.560;2024-01-15T02:49:49;29.15;;;13.57;;
82952;SDS011;74888;40.196;44.560;2024-01-15T02:54:42;29.17;;;13.25;;
82952;SDS011;74888;40.196;44.560;2024-01-15T02:57:07;32.50;;;12.95;;
82952;SDS011;74888;40.196;44.560;2024-01-15T02:59:34;30.45;;;13.88;;
82952;SDS011;74888;40.196;44.560;2024-01-15T03:02:00;30.23;;;13.60;;
82952;SDS011;74888;40.196;44.560;2024-01-15T03:04:25;30.95;;;13.98;;
82952;SDS011;74888;40.196;44.560;2024-01-15T03:06:51;31.20;;;14.07;;
82952;SDS011;74888;40.196;44.560;2024-01-15T03:09:17;31.70;;;13.80;;
82952;SDS011;74888;40.196;44.560;2024-01-15T03:11:44;30.90;;;13.55;;
82952;SDS011;74888;40.196;44.560;2024-01-15T03:14:11;25.35;;;11.43;;
82952;SDS011;74888;40.196;44.560;2024-01-15T03:16:37;20.02;;;10.73;;
82952;SDS011;74888;40.196;44.560;2024-01-15T03:19:03;23.65;;;11.80;;
82952;SDS011;74888;40.196;44.560;2024-01-15T03:21:29;28.90;;;12.50;;
82952;SDS011;74888;40.196;44.560;2024-01-15T03:23:56;25.98;;;13.18;;
82952;SDS011;74888;40.196;44.560;2024-01-15T03:26:21;24.50;;;12.82;;
82952;SDS011;74888;40.196;44.560;2024-01-15T03:28:47;28.00;;;12.88;;
82952;SDS011;74888;40.196;44.560;2024-01-15T03:31:13;30.05;;;13.25;;
82952;SDS011;74888;40.196;44.560;2024-01-15T03:33:38;27.30;;;12.98;;
82952;SDS011;74888;40.196;44.560;2024-01-15T03:36:04;33.08;;;14.93;;
82952;SDS011;74888;40.196;44.560;2024-01-15T03:38:30;31.45;;;14.10;;
82952;SDS011;74888;40.196;44.560;2024-01-15T03:40:55;35.65;;;13.52;;
82952;SDS011;74888;40.196;44.560;2024-01-15T03:43:21;45.85;;;16.85;;
82952;SDS011;74888;40.196;44.560;2024-01-15T03:45:47;41.85;;;17.27;;
82952;SDS011;74888;40.196;44.560;2024-01-15T03:48:12;36.35;;;17.90;;
82952;SDS011;74888;40.196;44.560;2024-01-15T03:50:40;38.33;;;17.67;;
82952;SDS011;74888;40.196;44.560;2024-01-15T03:53:07;35.40;;;15.88;;
82952;SDS011;74888;40.196;44.560;2024-01-15T03:55:35;37.58;;;17.35;;
82952;SDS011;74888;40.196;44.560;2024-01-15T03:58:00;93.00;;;35.13;;
82952;SDS011;74888;40.196;44.560;2024-01-15T04:00:26;79.82;;;30.92;;
82952;SDS011;74888;40.196;44.560;2024-01-15T04:02:51;52.20;;;22.58;;
82952;SDS011;74888;40.196;44.560;2024-01-15T04:07:44;48.50;;;19.52;;
82952;SDS011;74888;40.196;44.560;2024-01-15T04:10:09;36.67;;;16.85;;
82952;SDS011;74888;40.196;44.560;2024-01-15T04:12:36;39.45;;;17.33;;
82952;SDS011;74888;40.196;44.560;2024-01-15T04:15:02;33.72;;;15.38;;
82952;SDS011;74888;40.196;44.560;2024-01-15T04:17:28;31.95;;;14.52;;
82952;SDS011;74888;40.196;44.560;2024-01-15T04:19:54;29.52;;;13.60;;
82952;SDS011;74888;40.196;44.560;2024-01-15T04:22:20;28.80;;;14.55;;
82952;SDS011;74888;40.196;44.560;2024-01-15T04:24:46;31.98;;;14.40;;
82952;SDS011;74888;40.196;44.560;2024-01-15T04:27:12;28.98;;;13.02;;
82952;SDS011;74888;40.196;44.560;2024-01-15T04:29:38;28.63;;;12.77;;
82952;SDS011;74888;40.196;44.560;2024-01-15T04:32:04;26.15;;;12.95;;
82952;SDS011;74888;40.196;44.560;2024-01-15T04:36:59;36.05;;;15.27;;
82952;SDS011;74888;40.196;44.560;2024-01-15T04:39:24;32.13;;;14.27;;
82952;SDS011;74888;40.196;44.560;2024-01-15T04:41:50;29.77;;;12.88;;
82952;SDS011;74888;40.196;44.560;2024-01-15T04:44:17;36.00;;;16.38;;
82952;SDS011;74888;40.196;44.560;2024-01-15T04:46:42;41.70;;;20.85;;
82952;SDS011;74888;40.196;44.560;2024-01-15T04:51:34;33.05;;;14.70;;
82952;SDS011;74888;40.196;44.560;2024-01-15T04:54:00;34.42;;;14.20;;
82952;SDS011;74888;40.196;44.560;2024-01-15T04:56:27;32.47;;;14.32;;
82952;SDS011;74888;40.196;44.560;2024-01-15T04:58:53;31.33;;;13.57;;
82952;SDS011;74888;40.196;44.560;2024-01-15T05:01:22;32.08;;;14.70;;
82952;SDS011;74888;40.196;44.560;2024-01-15T05:03:49;27.25;;;14.43;;
82952;SDS011;74888;40.196;44.560;2024-01-15T05:06:17;31.67;;;15.43;;
82952;SDS011;74888;40.196;44.560;2024-01-15T05:08:42;34.55;;;15.07;;
82952;SDS011;74888;40.196;44.560;2024-01-15T05:13:36;33.90;;;14.90;;
82952;SDS011;74888;40.196;44.560;2024-01-15T05:16:02;40.85;;;17.60;;
82952;SDS011;74888;40.196;44.560;2024-01-15T05:18:28;45.22;;;18.60;;
82952;SDS011;74888;40.196;44.560;2024-01-15T05:20:55;46.15;;;20.48;;
82952;SDS011;74888;40.196;44.560;2024-01-15T05:23:20;43.53;;;19.25;;
82952;SDS011;74888;40.196;44.560;2024-01-15T05:25:46;30.55;;;15.00;;
82952;SDS011;74888;40.196;44.560;2024-01-15T05:28:14;36.13;;;15.65;;
82952;SDS011;74888;40.196;44.560;2024-01-15T05:30:40;41.40;;;19.77;;
82952;SDS011;74888;40.196;44.560;2024-01-15T05:35:32;34.72;;;17.13;;
82952;SDS011;74888;40.196;44.560;2024-01-15T05:37:59;33.30;;;16.40;;
82952;SDS011;74888;40.196;44.560;2024-01-15T05:40:25;36.83;;;16.17;;
82952;SDS011;74888;40.196;44.560;2024-01-15T05:42:53;33.80;;;15.60;;
82952;SDS011;74888;40.196;44.560;2024-01-15T05:45:20;49.50;;;17.45;;
82952;SDS011;74888;40.196;44.560;2024-01-15T05:47:45;38.30;;;18.80;;
82952;SDS011;74888;40.196;44.560;2024-01-15T05:52:38;44.97;;;19.23;;
82952;SDS011;74888;40.196;44.560;2024-01-15T05:55:04;64.78;;;20.60;;
82952;SDS011;74888;40.196;44.560;2024-01-15T05:57:30;55.83;;;22.70;;
82952;SDS011;74888;40.196;44.560;2024-01-15T05:59:57;56.60;;;21.73;;
82952;SDS011;74888;40.196;44.560;2024-01-15T06:02:22;40.50;;;17.60;;
82952;SDS011;74888;40.196;44.560;2024-01-15T06:07:14;35.63;;;15.35;;
82952;SDS011;74888;40.196;44.560;2024-01-15T06:09:40;42.53;;;19.75;;
82952;SDS011;74888;40.196;44.560;2024-01-15T06:14:33;44.17;;;18.52;;
82952;SDS011;74888;40.196;44.560;2024-01-15T06:16:59;38.30;;;17.90;;
82952;SDS011;74888;40.196;44.560;2024-01-15T06:21:51;36.55;;;16.70;;
82952;SDS011;74888;40.196;44.560;2024-01-15T06:26:46;39.40;;;18.13;;
82952;SDS011;74888;40.196;44.560;2024-01-15T06:29:14;41.20;;;20.65;;
82952;SDS011;74888;40.196;44.560;2024-01-15T06:31:42;40.75;;;19.52;;
82952;SDS011;74888;40.196;44.560;2024-01-15T06:34:07;50.90;;;22.35;;
82952;SDS011;74888;40.196;44.560;2024-01-15T06:39:00;51.13;;;21.63;;
82952;SDS011;74888;40.196;44.560;2024-01-15T06:43:53;46.60;;;20.88;;
82952;SDS011;74888;40.196;44.560;2024-01-15T06:46:22;47.03;;;21.60;;
82952;SDS011;74888;40.196;44.560;2024-01-15T06:48:49;49.03;;;21.10;;
82952;SDS011;74888;40.196;44.560;2024-01-15T06:51:15;48.47;;;20.58;;
82952;SDS011;74888;40.196;44.560;2024-01-15T06:53:41;45.35;;;21.63;;
82952;SDS011;74888;40.196;44.560;2024-01-15T06:58:35;50.13;;;19.92;;
82952;SDS011;74888;40.196;44.560;2024-01-15T07:03:28;57.63;;;23.27;;
82952;SDS011;74888;40.196;44.560;2024-01-15T07:05:53;46.60;;;22.33;;
82952;SDS011;74888;40.196;44.560;2024-01-15T07:10:44;49.92;;;22.17;;
82952;SDS011;74888;40.196;44.560;2024-01-15T07:18:04;43.35;;;21.23;;
82952;SDS011;74888;40.196;44.560;2024-01-15T07:20:30;41.25;;;19.83;;
82952;SDS011;74888;40.196;44.560;2024-01-15T07:25:24;44.90;;;20.67;;
82952;SDS011;74888;40.196;44.560;2024-01-15T07:27:51;43.10;;;21.65;;
82952;SDS011;74888;40.196;44.560;2024-01-15T07:30:19;40.47;;;19.83;;
82952;SDS011;74888;40.196;44.560;2024-01-15T07:32:47;42.22;;;21.88;;
82952;SDS011;74888;40.196;44.560;2024-01-15T07:37:39;45.10;;;20.30;;
82952;SDS011;74888;40.196;44.560;2024-01-15T07:40:05;48.78;;;20.98;;
82952;SDS011;74888;40.196;44.560;2024-01-15T07:42:33;46.63;;;21.90;;
82952;SDS011;74888;40.196;44.560;2024-01-15T07:45:06;41.50;;;19.50;;
82952;SDS011;74888;40.196;44.560;2024-01-15T07:47:31;41.88;;;18.80;;
82952;SDS011;74888;40.196;44.560;2024-01-15T07:49:58;42.25;;;20.15;;
82952;SDS011;74888;40.196;44.560;2024-01-15T07:52:25;52.22;;;20.05;;
82952;SDS011;74888;40.196;44.560;2024-01-15T07:54:50;44.30;;;19.73;;
82952;SDS011;74888;40.196;44.560;2024-01-15T07:59:42;46.28;;;20.75;;
82952;SDS011;74888;40.196;44.560;2024-01-15T08:02:08;44.33;;;19.90;;
82952;SDS011;74888;40.196;44.560;2024-01-15T08:04:34;44.08;;;20.33;;
82952;SDS011;74888;40.196;44.560;2024-01-15T08:09:26;41.90;;;18.33;;
82952;SDS011;74888;40.196;44.560;2024-01-15T08:11:52;69.10;;;24.45;;
82952;SDS011;74888;40.196;44.560;2024-01-15T08:16:43;45.53;;;20.23;;
82952;SDS011;74888;40.196;44.560;2024-01-15T08:19:09;43.42;;;20.33;;
82952;SDS011;74888;40.196;44.560;2024-01-15T08:21:34;49.03;;;21.85;;
82952;SDS011;74888;40.196;44.560;2024-01-15T08:24:00;48.65;;;20.95;;
82952;SDS011;74888;40.196;44.560;2024-01-15T08:26:29;38.45;;;19.23;;
82952;SDS011;74888;40.196;44.560;2024-01-15T08:28:55;48.90;;;20.20;;
82952;SDS011;74888;40.196;44.560;2024-01-15T08:31:21;41.47;;;19.60;;
82952;SDS011;74888;40.196;44.560;2024-01-15T08:33:48;38.70;;;20.10;;
82952;SDS011;74888;40.196;44.560;2024-01-15T08:36:14;51.25;;;21.83;;
82952;SDS011;74888;40.196;44.560;2024-01-15T08:38:39;43.90;;;21.48;;
82952;SDS011;74888;40.196;44.560;2024-01-15T08:41:06;52.58;;;20.90;;
82952;SDS011;74888;40.196;44.560;2024-01-15T08:43:33;37.80;;;20.17;;
82952;SDS011;74888;40.196;44.560;2024-01-15T08:45:59;42.67;;;20.70;;
82952;SDS011;74888;40.196;44.560;2024-01-15T08:48:26;39.42;;;18.63;;
82952;SDS011;74888;40.196;44.560;2024-01-15T08:50:55;45.92;;;18.98;;
82952;SDS011;74888;40.196;44.560;2024-01-15T08:53:22;43.97;;;19.48;;
82952;SDS011;74888;40.196;44.560;2024-01-15T08:55:48;41.10;;;19.17;;
82952;SDS011;74888;40.196;44.560;2024-01-15T08:58:14;39.03;;;18.65;;
82952;SDS011;74888;40.196;44.560;2024-01-15T09:00:40;40.08;;;19.35;;
82952;SDS011;74888;40.196;44.560;2024-01-15T09:03:06;45.25;;;19.80;;
82952;SDS011;74888;40.196;44.560;2024-01-15T09:05:34;46.78;;;23.58;;
82952;SDS011;74888;40.196;44.560;2024-01-15T09:08:00;46.15;;;20.63;;
82952;SDS011;74888;40.196;44.560;2024-01-15T09:10:27;38.67;;;19.30;;
82952;SDS011;74888;40.196;44.560;2024-01-15T09:12:54;39.83;;;19.48;;
82952;SDS011;74888;40.196;44.560;2024-01-15T09:15:20;38.90;;;18.92;;
82952;SDS011;74888;40.196;44.560;2024-01-15T09:17:47;40.33;;;19.00;;
82952;SDS011;74888;40.196;44.560;2024-01-15T09:20:13;38.03;;;19.77;;
82952;SDS011;74888;40.196;44.560;2024-01-15T09:22:38;33.70;;;19.10;;
82952;SDS011;74888;40.196;44.560;2024-01-15T09:25:08;43.58;;;19.75;;
82952;SDS011;74888;40.196;44.560;2024-01-15T09:27:35;41.13;;;20.30;;
82952;SDS011;74888;40.196;44.560;2024-01-15T09:30:01;35.53;;;18.75;;
82952;SDS011;74888;40.196;44.560;2024-01-15T09:32:28;33.70;;;17.90;;
82952;SDS011;74888;40.196;44.560;2024-01-15T09:34:54;34.33;;;18.17;;
82952;SDS011;74888;40.196;44.560;2024-01-15T09:37:21;45.90;;;25.55;;
82952;SDS011;74888;40.196;44.560;2024-01-15T09:39:48;40.95;;;20.92;;
82952;SDS011;74888;40.196;44.560;2024-01-15T09:42:15;40.03;;;20.33;;
82952;SDS011;74888;40.196;44.560;2024-01-15T09:44:41;38.55;;;19.05;;
82952;SDS011;74888;40.196;44.560;2024-01-15T09:47:07;39.63;;;20.55;;
82952;SDS011;74888;40.196;44.560;2024-01-15T09:49:33;40.05;;;20.30;;
82952;SDS011;74888;40.196;44.560;2024-01-15T09:51:59;50.90;;;23.58;;
82952;SDS011;74888;40.196;44.560;2024-01-15T09:54:27;46.25;;;20.08;;
82952;SDS011;74888;40.196;44.560;2024-01-15T09:56:53;38.55;;;17.98;;
82952;SDS011;74888;40.196;44.560;2024-01-15T09:59:20;52.67;;;21.38;;
82952;SDS011;74888;40.196;44.560;2024-01-15T10:01:47;37.72;;;18.90;;
82952;SDS011;74888;40.196;44.560;2024-01-15T10:04:16;38.03;;;19.77;;
82952;SDS011;74888;40.196;44.560;2024-01-15T10:06:43;46.70;;;20.33;;
82952;SDS011;74888;40.196;44.560;2024-01-15T10:09:13;43.50;;;21.05;;
82952;SDS011;74888;40.196;44.560;2024-01-15T10:11:42;57.22;;;24.95;;
82952;SDS011;74888;40.196;44.560;2024-01-15T10:14:12;47.38;;;22.27;;
82952;SDS011;74888;40.196;44.560;2024-01-15T10:16:38;38.10;;;20.38;;
82952;SDS011;74888;40.196;44.560;2024-01-15T10:19:09;46.05;;;22.23;;
82952;SDS011;74888;40.196;44.560;2024-01-15T10:21:35;39.92;;;21.02;;
82952;SDS011;74888;40.196;44.560;2024-01-15T10:24:02;47.53;;;21.90;;
82952;SDS011;74888;40.196;44.560;2024-01-15T10:26:30;59.53;;;24.55;;
82952;SDS011;74888;40.196;44.560;2024-01-15T10:29:01;41.70;;;23.00;;
82952;SDS011;74888;40.196;44.560;2024-01-15T10:31:27;45.25;;;23.20;;
82952;SDS011;74888;40.196;44.560;2024-01-15T10:34:02;44.25;;;23.33;;
82952;SDS011;74888;40.196;44.560;2024-01-15T10:36:35;43.45;;;23.02;;
82952;SDS011;74888;40.196;44.560;2024-01-15T10:39:04;40.33;;;22.23;;
82952;SDS011;74888;40.196;44.560;2024-01-15T10:41:31;52.95;;;23.98;;
82952;SDS011;74888;40.196;44.560;2024-01-15T10:43:57;55.47;;;24.63;;
82952;SDS011;74888;40.196;44.560;2024-01-15T10:46:22;60.35;;;27.42;;
82952;SDS011;74888;40.196;44.560;2024-01-15T10:48:48;54.72;;;25.65;;
82952;SDS011;74888;40.196;44.560;2024-01-15T10:51:15;43.63;;;23.17;;
82952;SDS011;74888;40.196;44.560;2024-01-15T10:53:41;45.03;;;22.75;;
82952;SDS011;74888;40.196;44.560;2024-01-15T10:56:08;48.00;;;23.77;;
82952;SDS011;74888;40.196;44.560;2024-01-15T10:58:35;50.60;;;24.20;;
82952;SDS011;74888;40.196;44.560;2024-01-15T11:01:02;44.33;;;21.80;;
82952;SDS011;74888;40.196;44.560;2024-01-15T11:03:30;43.22;;;21.58;;
82952;SDS011;74888;40.196;44.560;2024-01-15T11:05:57;42.67;;;21.73;;
82952;SDS011;74888;40.196;44.560;2024-01-15T11:08:24;46.33;;;23.05;;
82952;SDS011;74888;40.196;44.560;2024-01-15T11:10:51;54.35;;;25.30;;
82952;SDS011;74888;40.196;44.560;2024-01-15T11:18:39;38.88;;;19.75;;
82952;SDS011;74888;40.196;44.560;2024-01-15T11:23:45;45.67;;;21.67;;
82952;SDS011;74888;40.196;44.560;2024-01-15T11:28:57;47.50;;;22.40;;
82952;SDS011;74888;40.196;44.560;2024-01-15T11:31:28;41.63;;;19.65;;
82952;SDS011;74888;40.196;44.560;2024-01-15T11:33:54;42.45;;;20.52;;
82952;SDS011;74888;40.196;44.560;2024-01-15T11:41:59;37.38;;;19.20;;
82952;SDS011;74888;40.196;44.560;2024-01-15T11:44:26;41.03;;;20.10;;
82952;SDS011;74888;40.196;44.560;2024-01-15T11:47:06;48.05;;;22.38;;
82952;SDS011;74888;40.196;44.560;2024-01-15T11:52:21;39.10;;;20.42;;
82952;SDS011;74888;40.196;44.560;2024-01-15T11:54:55;45.90;;;21.33;;
82952;SDS011;74888;40.196;44.560;2024-01-15T11:57:32;41.45;;;20.50;;
82952;SDS011;74888;40.196;44.560;2024-01-15T12:00:12;42.30;;;20.50;;
82952;SDS011;74888;40.196;44.560;2024-01-15T12:02:42;57.97;;;22.80;;
82952;SDS011;74888;40.196;44.560;2024-01-15T12:05:12;43.83;;;21.00;;
82952;SDS011;74888;40.196;44.560;2024-01-15T12:07:39;48.10;;;23.52;;
82952;SDS011;74888;40.196;44.560;2024-01-15T12:10:09;42.35;;;20.20;;
82952;SDS011;74888;40.196;44.560;2024-01-15T12:15:41;43.28;;;19.73;;
82952;SDS011;74888;40.196;44.560;2024-01-15T12:18:10;41.45;;;19.70;;
82952;SDS011;74888;40.196;44.560;2024-01-15T12:20:37;45.22;;;20.63;;
82952;SDS011;74888;40.196;44.560;2024-01-15T12:23:03;43.67;;;20.80;;
82952;SDS011;74888;40.196;44.560;2024-01-15T12:25:32;42.97;;;19.58;;
82952;SDS011;74888;40.196;44.560;2024-01-15T12:27:59;52.88;;;22.98;;
82952;SDS011;74888;40.196;44.560;2024-01-15T12:30:26;46.08;;;21.88;;
82952;SDS011;74888;40.196;44.560;2024-01-15T12:32:54;55.30;;;24.38;;
82952;SDS011;74888;40.196;44.560;2024-01-15T12:35:23;51.90;;;20.88;;
82952;SDS011;74888;40.196;44.560;2024-01-15T12:37:51;40.92;;;18.35;;
82952;SDS011;74888;40.196;44.560;2024-01-15T12:40:21;43.70;;;20.63;;
82952;SDS011;74888;40.196;44.560;2024-01-15T12:42:47;38.33;;;19.65;;
82952;SDS011;74888;40.196;44.560;2024-01-15T12:45:13;38.92;;;20.00;;
82952;SDS011;74888;40.196;44.560;2024-01-15T12:47:39;40.60;;;19.02;;
82952;SDS011;74888;40.196;44.560;2024-01-15T12:50:10;37.00;;;18.48;;
82952;SDS011;74888;40.196;44.560;2024-01-15T12:52:37;45.83;;;19.50;;
82952;SDS011;74888;40.196;44.560;2024-01-15T12:55:05;46.58;;;20.27;;
82952;SDS011;74888;40.196;44.560;2024-01-15T12:57:32;38.30;;;18.75;;
82952;SDS011;74888;40.196;44.560;2024-01-15T12:59:59;39.72;;;19.23;;
82952;SDS011;74888;40.196;44.560;2024-01-15T13:02:25;39.97;;;19.60;;
82952;SDS011;74888;40.196;44.560;2024-01-15T13:04:51;38.35;;;18.90;;
82952;SDS011;74888;40.196;44.560;2024-01-15T13:07:17;41.08;;;19.70;;
82952;SDS011;74888;40.196;44.560;2024-01-15T13:09:43;42.97;;;19.60;;
82952;SDS011;74888;40.196;44.560;2024-01-15T13:12:08;35.22;;;18.77;;
82952;SDS011;74888;40.196;44.560;2024-01-15T13:14:34;47.30;;;21.45;;
82952;SDS011;74888;40.196;44.560;2024-01-15T13:17:01;44.20;;;20.48;;
82952;SDS011;74888;40.196;44.560;2024-01-15T13:19:28;44.45;;;20.65;;
82952;SDS011;74888;40.196;44.560;2024-01-15T13:21:55;52.63;;;23.23;;
82952;SDS011;74888;40.196;44.560;2024-01-15T13:24:23;66.68;;;23.00;;
82952;SDS011;74888;40.196;44.560;2024-01-15T13:26:49;55.03;;;24.42;;
82952;SDS011;74888;40.196;44.560;2024-01-15T13:29:15;43.97;;;20.55;;
82952;SDS011;74888;40.196;44.560;2024-01-15T13:31:40;41.28;;;19.60;;
82952;SDS011;74888;40.196;44.560;2024-01-15T13:34:06;42.58;;;18.65;;
82952;SDS011;74888;40.196;44.560;2024-01-15T13:36:32;42.85;;;18.50;;
82952;SDS011;74888;40.196;44.560;2024-01-15T13:38:58;44.85;;;19.13;;
82952;SDS011;74888;40.196;44.560;2024-01-15T13:41:26;38.33;;;18.63;;
82952;SDS011;74888;40.196;44.560;2024-01-15T13:43:54;40.00;;;20.75;;
82952;SDS011;74888;40.196;44.560;2024-01-15T13:46:24;58.40;;;24.17;;
82952;SDS011;74888;40.196;44.560;2024-01-15T13:48:53;45.63;;;22.23;;
82952;SDS011;74888;40.196;44.560;2024-01-15T13:51:21;43.35;;;20.35;;
82952;SDS011;74888;40.196;44.560;2024-01-15T13:53:48;40.03;;;19.60;;
82952;SDS011;74888;40.196;44.560;2024-01-15T13:56:14;47.72;;;19.85;;
82952;SDS011;74888;40.196;44.560;2024-01-15T13:58:41;44.08;;;21.02;;
82952;SDS011;74888;40.196;44.560;2024-01-15T14:01:07;45.63;;;20.98;;
82952;SDS011;74888;40.196;44.560;2024-01-15T14:03:33;44.92;;;21.67;;
82952;SDS011;74888;40.196;44.560;2024-01-15T14:06:01;53.42;;;23.45;;
82952;SDS011;74888;40.196;44.560;2024-01-15T14:08:28;55.38;;;23.85;;
82952;SDS011;74888;40.196;44.560;2024-01-15T14:10:54;54.85;;;25.08;;
82952;SDS011;74888;40.196;44.560;2024-01-15T14:13:23;53.30;;;24.52;;
82952;SDS011;74888;40.196;44.560;2024-01-15T14:15:48;53.10;;;23.75;;
82952;SDS011;74888;40.196;44.560;2024-01-15T14:18:16;50.92;;;21.67;;
82952;SDS011;74888;40.196;44.560;2024-01-15T14:20:42;43.47;;;21.23;;
82952;SDS011;74888;40.196;44.560;2024-01-15T14:23:08;42.63;;;20.85;;
82952;SDS011;74888;40.196;44.560;2024-01-15T14:25:34;49.22;;;22.40;;
82952;SDS011;74888;40.196;44.560;2024-01-15T14:28:01;48.85;;;21.02;;
82952;SDS011;74888;40.196;44.560;2024-01-15T14:30:27;41.42;;;19.98;;
82952;SDS011;74888;40.196;44.560;2024-01-15T14:32:54;42.90;;;20.17;;
82952;SDS011;74888;40.196;44.560;2024-01-15T14:35:20;38.45;;;18.58;;
82952;SDS011;74888;40.196;44.560;2024-01-15T14:37:45;42.00;;;19.70;;
82952;SDS011;74888;40.196;44.560;2024-01-15T14:40:13;44.78;;;19.50;;
82952;SDS011;74888;40.196;44.560;2024-01-15T14:42:41;45.78;;;21.48;;
82952;SDS011;74888;40.196;44.560;2024-01-15T14:45:08;55.40;;;22.92;;
82952;SDS011;74888;40.196;44.560;2024-01-15T14:47:40;101.57;;;36.15;;
82952;SDS011;74888;40.196;44.560;2024-01-15T14:50:07;85.63;;;31.05;;
82952;SDS011;74888;40.196;44.560;2024-01-15T14:52:33;100.53;;;34.95;;
82952;SDS011;74888;40.196;44.560;2024-01-15T14:54:59;66.38;;;28.10;;
82952;SDS011;74888;40.196;44.560;2024-01-15T14:57:25;51.03;;;24.80;;
82952;SDS011;74888;40.196;44.560;2024-01-15T14:59:52;67.38;;;28.40;;
82952;SDS011;74888;40.196;44.560;2024-01-15T15:02:18;52.28;;;24.33;;
82952;SDS011;74888;40.196;44.560;2024-01-15T15:04:45;50.10;;;23.55;;
82952;SDS011;74888;40.196;44.560;2024-01-15T15:07:11;41.75;;;20.80;;
82952;SDS011;74888;40.196;44.560;2024-01-15T15:09:38;48.67;;;21.63;;
82952;SDS011;74888;40.196;44.560;2024-01-15T15:12:05;67.45;;;31.67;;
82952;SDS011;74888;40.196;44.560;2024-01-15T15:14:32;78.43;;;34.15;;
82952;SDS011;74888;40.196;44.560;2024-01-15T15:17:05;80.97;;;34.20;;
82952;SDS011;74888;40.196;44.560;2024-01-15T15:19:31;83.43;;;39.30;;
82952;SDS011;74888;40.196;44.560;2024-01-15T15:21:57;69.53;;;31.08;;
82952;SDS011;74888;40.196;44.560;2024-01-15T15:24:24;95.53;;;41.80;;
82952;SDS011;74888;40.196;44.560;2024-01-15T15:26:49;71.90;;;32.13;;
82952;SDS011;74888;40.196;44.560;2024-01-15T15:29:15;74.32;;;32.95;;
82952;SDS011;74888;40.196;44.560;2024-01-15T15:31:42;68.10;;;32.67;;
82952;SDS011;74888;40.196;44.560;2024-01-15T15:34:08;97.82;;;45.85;;
82952;SDS011;74888;40.196;44.560;2024-01-15T15:36:37;69.93;;;31.17;;
82952;SDS011;74888;40.196;44.560;2024-01-15T15:39:03;61.08;;;29.20;;
82952;SDS011;74888;40.196;44.560;2024-01-15T15:43:59;59.30;;;26.77;;
82952;SDS011;74888;40.196;44.560;2024-01-15T15:46:25;59.17;;;26.33;;